Terminal Aerodrome Forecast
Issued by NWS Sterling, VA

Home | Current Version | Previous Version | Text Only | Print | Product List | Glossary On
Versions: 1 2 3 4 5 6 7 8 9 10 11 12 13 14 15
000
FTUS41 KLWX 262324
TAFCHO
TAF
KCHO 262324Z 2700/2724 21013KT P6SM FEW060 BKN100 OVC120
     FM270100 26010G22KT 6SM -SHRA OVC050
     FM270300 31012G20KT 5SM -SHRA OVC025
     FM270400 35007KT 3SM -RA OVC025
     FM271300 01005KT P6SM OVC015
     FM271800 05006KT P6SM BKN025
     FM272100 04008KT P6SM BKN050=

USA.gov is the U.S. government's official web portal to all federal, state and local government web resources and services.